DTTJ

Djerba Zarzis International Airport

Djerba, Tunisia
METAR DTTJ 160030Z 29014KT 9999 FEW023 16/06 Q1023
Observed Flight Rules
Dec-16 @ 00:30 UTC (45 minutes ago) Visual Flight Rules
Wind Visibility Clouds
290° at 14 knots 10,000+ meters
  • Few at 2,300' AGL
Temperatures Readings
Current 16°C / 61°F
Dewpoint 6°C / 43°F
Humidity 52%
Altimeter 30.21" Hg
Pressure 1023 hPa
Elevation 4
METAR DTTJ 160030Z 29014KT 9999 FEW023 16/06 Q1023
Observed Flight Rules
Dec-16 @ 00:30 UTC
(45 minutes ago)
VFR
Wind Visibility
290° at 14 knots 10,000+ meters
Clouds
  • Few at 2,300' AGL
Temperature Dewpoint
16°C / 61°F 6°C / 43°F
Humidity Altimeter Pressure
52% 30.21" Hg 1023 hPa